sensor_id;sensor_type;location;lat;lon;timestamp;pressure;altitude;pressure_sealevel;temperature;humidity
36380;BME280;22411;53.016;18.632;2023-05-25T00:00:01;101117.06;;;12.51;100.00
36380;BME280;22411;53.016;18.632;2023-05-25T00:02:29;101118.00;;;12.50;100.00
36380;BME280;22411;53.016;18.632;2023-05-25T00:04:57;101115.72;;;12.45;100.00
36380;BME280;22411;53.016;18.632;2023-05-25T00:07:25;101105.63;;;12.41;100.00
36380;BME280;22411;53.016;18.632;2023-05-25T00:09:51;101098.22;;;12.35;100.00
36380;BME280;22411;53.016;18.632;2023-05-25T00:12:17;101100.28;;;12.29;100.00
36380;BME280;22411;53.016;18.632;2023-05-25T00:14:42;101106.22;;;12.32;100.00
36380;BME280;22411;53.016;18.632;2023-05-25T00:17:08;101105.38;;;12.31;100.00
36380;BME280;22411;53.016;18.632;2023-05-25T00:19:34;101101.31;;;12.27;100.00
36380;BME280;22411;53.016;18.632;2023-05-25T00:22:00;101106.09;;;12.20;100.00
36380;BME280;22411;53.016;18.632;2023-05-25T00:24:29;101109.53;;;12.21;100.00
36380;BME280;22411;53.016;18.632;2023-05-25T00:26:56;101107.66;;;12.23;100.00
36380;BME280;22411;53.016;18.632;2023-05-25T00:29:22;101107.22;;;12.16;100.00
36380;BME280;22411;53.016;18.632;2023-05-25T00:31:48;101104.19;;;12.10;100.00
36380;BME280;22411;53.016;18.632;2023-05-25T00:34:15;101099.19;;;12.07;100.00
36380;BME280;22411;53.016;18.632;2023-05-25T00:36:41;101097.41;;;12.07;100.00
36380;BME280;22411;53.016;18.632;2023-05-25T00:39:07;101109.41;;;12.10;100.00
36380;BME280;22411;53.016;18.632;2023-05-25T00:41:35;101115.41;;;12.10;100.00
36380;BME280;22411;53.016;18.632;2023-05-25T00:44:09;101120.91;;;12.06;100.00
36380;BME280;22411;53.016;18.632;2023-05-25T00:46:41;101119.06;;;12.08;100.00
36380;BME280;22411;53.016;18.632;2023-05-25T00:49:09;101112.59;;;12.00;100.00
36380;BME280;22411;53.016;18.632;2023-05-25T00:51:36;101108.50;;;11.96;100.00
36380;BME280;22411;53.016;18.632;2023-05-25T00:54:02;101115.75;;;11.91;100.00
36380;BME280;22411;53.016;18.632;2023-05-25T00:56:30;101121.28;;;11.87;100.00
36380;BME280;22411;53.016;18.632;2023-05-25T00:58:59;101118.75;;;11.85;100.00
36380;BME280;22411;53.016;18.632;2023-05-25T01:01:30;101128.31;;;11.85;100.00
36380;BME280;22411;53.016;18.632;2023-05-25T01:03:58;101135.09;;;11.87;100.00
36380;BME280;22411;53.016;18.632;2023-05-25T01:06:29;101143.31;;;11.79;100.00
36380;BME280;22411;53.016;18.632;2023-05-25T01:08:59;101146.75;;;11.80;100.00
36380;BME280;22411;53.016;18.632;2023-05-25T01:11:35;101146.75;;;11.80;100.00
36380;BME280;22411;53.016;18.632;2023-05-25T01:14:02;101154.09;;;11.88;100.00
36380;BME280;22411;53.016;18.632;2023-05-25T01:16:28;101142.97;;;11.86;100.00
36380;BME280;22411;53.016;18.632;2023-05-25T01:18:54;101147.53;;;11.82;100.00
36380;BME280;22411;53.016;18.632;2023-05-25T01:26:31;101156.25;;;11.81;100.00
36380;BME280;22411;53.016;18.632;2023-05-25T01:29:00;101156.25;;;11.81;100.00
36380;BME280;22411;53.016;18.632;2023-05-25T01:31:27;101161.50;;;11.79;100.00
36380;BME280;22411;53.016;18.632;2023-05-25T01:33:54;101155.38;;;11.81;100.00
36380;BME280;22411;53.016;18.632;2023-05-25T01:36:20;101160.13;;;11.74;100.00
36380;BME280;22411;53.016;18.632;2023-05-25T01:38:46;101153.44;;;11.70;100.00
36380;BME280;22411;53.016;18.632;2023-05-25T01:41:12;101158.38;;;11.74;100.00
36380;BME280;22411;53.016;18.632;2023-05-25T01:43:37;101163.00;;;11.69;100.00
36380;BME280;22411;53.016;18.632;2023-05-25T01:46:18;101155.97;;;11.71;100.00
36380;BME280;22411;53.016;18.632;2023-05-25T01:51:54;101157.47;;;11.61;100.00
36380;BME280;22411;53.016;18.632;2023-05-25T01:54:30;101155.06;;;11.58;100.00
36380;BME280;22411;53.016;18.632;2023-05-25T01:57:00;101162.03;;;11.58;100.00
36380;BME280;22411;53.016;18.632;2023-05-25T01:59:28;101165.72;;;11.53;100.00
36380;BME280;22411;53.016;18.632;2023-05-25T02:01:56;101157.09;;;11.53;100.00
36380;BME280;22411;53.016;18.632;2023-05-25T02:04:22;101164.16;;;11.51;100.00
36380;BME280;22411;53.016;18.632;2023-05-25T02:06:50;101163.97;;;11.54;100.00
36380;BME280;22411;53.016;18.632;2023-05-25T02:09:16;101163.88;;;11.56;100.00
36380;BME280;22411;53.016;18.632;2023-05-25T02:11:42;101160.53;;;11.53;100.00
36380;BME280;22411;53.016;18.632;2023-05-25T02:14:07;101161.38;;;11.54;100.00
36380;BME280;22411;53.016;18.632;2023-05-25T02:16:33;101167.31;;;11.56;100.00
36380;BME280;22411;53.016;18.632;2023-05-25T02:18:59;101162.41;;;11.51;100.00
36380;BME280;22411;53.016;18.632;2023-05-25T02:21:25;101152.19;;;11.48;100.00
36380;BME280;22411;53.016;18.632;2023-05-25T02:23:51;101158.31;;;11.47;100.00
36380;BME280;22411;53.016;18.632;2023-05-25T02:26:19;101164.44;;;11.46;100.00
36380;BME280;22411;53.016;18.632;2023-05-25T02:28:44;101170.66;;;11.44;100.00
36380;BME280;22411;53.016;18.632;2023-05-25T02:31:10;101177.59;;;11.43;100.00
36380;BME280;22411;53.016;18.632;2023-05-25T02:33:36;101170.66;;;11.44;100.00
36380;BME280;22411;53.016;18.632;2023-05-25T02:36:02;101177.81;;;11.40;100.00
36380;BME280;22411;53.016;18.632;2023-05-25T02:38:29;101176.88;;;11.41;100.00
36380;BME280;22411;53.016;18.632;2023-05-25T02:40:55;101175.09;;;11.42;100.00
36380;BME280;22411;53.016;18.632;2023-05-25T02:43:21;101186.69;;;11.36;100.00
36380;BME280;22411;53.016;18.632;2023-05-25T02:45:47;101177.72;;;11.42;100.00
36380;BME280;22411;53.016;18.632;2023-05-25T02:48:12;101178.91;;;11.36;100.00
36380;BME280;22411;53.016;18.632;2023-05-25T02:50:38;101185.59;;;11.40;100.00
36380;BME280;22411;53.016;18.632;2023-05-25T02:53:04;101183.84;;;11.41;100.00
36380;BME280;22411;53.016;18.632;2023-05-25T02:55:30;101181.41;;;11.38;100.00
36380;BME280;22411;53.016;18.632;2023-05-25T02:57:55;101177.97;;;11.37;100.00
36380;BME280;22411;53.016;18.632;2023-05-25T03:00:21;101175.84;;;11.44;100.00
36380;BME280;22411;53.016;18.632;2023-05-25T03:02:46;101183.84;;;11.41;100.00
36380;BME280;22411;53.016;18.632;2023-05-25T03:05:14;101183.72;;;11.42;100.00
36380;BME280;22411;53.016;18.632;2023-05-25T03:07:40;101179.75;;;11.37;100.00
36380;BME280;22411;53.016;18.632;2023-05-25T03:10:08;101176.31;;;11.36;100.00
36380;BME280;22411;53.016;18.632;2023-05-25T03:12:34;101171.31;;;11.33;100.00
36380;BME280;22411;53.016;18.632;2023-05-25T03:15:00;101179.84;;;11.35;100.00
36380;BME280;22411;53.016;18.632;2023-05-25T03:17:25;101178.25;;;11.33;100.00
36380;BME280;22411;53.016;18.632;2023-05-25T03:19:51;101170.47;;;11.33;100.00
36380;BME280;22411;53.016;18.632;2023-05-25T03:22:17;101170.03;;;11.26;100.00
36380;BME280;22411;53.016;18.632;2023-05-25T03:24:43;101167.53;;;11.24;100.00
36380;BME280;22411;53.016;18.632;2023-05-25T03:27:08;101180.84;;;11.33;100.00
36380;BME280;22411;53.016;18.632;2023-05-25T03:29:34;101183.28;;;11.36;100.00
36380;BME280;22411;53.016;18.632;2023-05-25T03:32:00;101184.28;;;11.33;100.00
36380;BME280;22411;53.016;18.632;2023-05-25T03:34:28;101184.00;;;11.38;100.00
36380;BME280;22411;53.016;18.632;2023-05-25T03:36:53;101190.03;;;11.38;100.00
36380;BME280;22411;53.016;18.632;2023-05-25T03:39:20;101193.56;;;11.37;100.00
36380;BME280;22411;53.016;18.632;2023-05-25T03:41:47;101195.97;;;11.40;100.00
36380;BME280;22411;53.016;18.632;2023-05-25T03:44:12;101204.38;;;11.44;100.00
36380;BME280;22411;53.016;18.632;2023-05-25T03:46:38;101201.06;;;11.42;100.00
36380;BME280;22411;53.016;18.632;2023-05-25T03:49:04;101205.31;;;11.43;100.00
36380;BME280;22411;53.016;18.632;2023-05-25T03:51:30;101204.50;;;11.42;100.00
36380;BME280;22411;53.016;18.632;2023-05-25T03:53:55;101201.50;;;11.48;100.00
36380;BME280;22411;53.016;18.632;2023-05-25T03:56:21;101202.19;;;11.52;100.00
36380;BME280;22411;53.016;18.632;2023-05-25T03:58:48;101206.88;;;11.60;100.00
36380;BME280;22411;53.016;18.632;2023-05-25T04:01:13;101210.97;;;11.64;100.00
36380;BME280;22411;53.016;18.632;2023-05-25T04:03:39;101219.84;;;11.74;100.00
36380;BME280;22411;53.016;18.632;2023-05-25T04:06:05;101221.25;;;11.79;100.00
36380;BME280;22411;53.016;18.632;2023-05-25T04:08:30;101218.94;;;11.89;100.00
36380;BME280;22411;53.016;18.632;2023-05-25T04:10:56;101222.91;;;11.95;100.00
36380;BME280;22411;53.016;18.632;2023-05-25T04:13:22;101223.66;;;11.97;100.00
36380;BME280;22411;53.016;18.632;2023-05-25T04:15:48;101214.56;;;12.04;100.00
36380;BME280;22411;53.016;18.632;2023-05-25T04:18:15;101218.81;;;12.05;100.00
36380;BME280;22411;53.016;18.632;2023-05-25T04:20:40;101227.16;;;12.10;100.00
36380;BME280;22411;53.016;18.632;2023-05-25T04:23:06;101225.53;;;12.22;100.00
36380;BME280;22411;53.016;18.632;2023-05-25T04:25:32;101234.81;;;12.26;100.00
36380;BME280;22411;53.016;18.632;2023-05-25T04:27:57;101229.22;;;12.32;100.00
36380;BME280;22411;53.016;18.632;2023-05-25T04:30:23;101235.19;;;12.47;100.00
36380;BME280;22411;53.016;18.632;2023-05-25T04:32:49;101236.97;;;12.46;100.00
36380;BME280;22411;53.016;18.632;2023-05-25T04:35:15;101230.41;;;12.41;100.00
36380;BME280;22411;53.016;18.632;2023-05-25T04:37:41;101223.53;;;12.40;100.00
36380;BME280;22411;53.016;18.632;2023-05-25T04:40:07;101223.28;;;12.30;100.00
36380;BME280;22411;53.016;18.632;2023-05-25T04:42:38;101229.97;;;12.34;100.00
36380;BME280;22411;53.016;18.632;2023-05-25T04:45:05;101224.66;;;12.36;100.00
36380;BME280;22411;53.016;18.632;2023-05-25T04:47:31;101233.94;;;12.40;100.00
36380;BME280;22411;53.016;18.632;2023-05-25T04:49:58;101236.16;;;12.59;100.00
36380;BME280;22411;53.016;18.632;2023-05-25T04:52:25;101229.47;;;12.54;100.00
36380;BME280;22411;53.016;18.632;2023-05-25T04:54:51;101229.94;;;12.61;100.00
36380;BME280;22411;53.016;18.632;2023-05-25T04:57:18;101239.00;;;12.68;100.00
36380;BME280;22411;53.016;18.632;2023-05-25T04:59:43;101239.72;;;12.70;100.00
36380;BME280;22411;53.016;18.632;2023-05-25T05:02:09;101231.63;;;12.75;100.00
36380;BME280;22411;53.016;18.632;2023-05-25T05:04:35;101234.56;;;12.83;100.00
36380;BME280;22411;53.016;18.632;2023-05-25T05:07:02;101235.81;;;12.90;100.00
36380;BME280;22411;53.016;18.632;2023-05-25T05:09:27;101237.81;;;12.99;100.00
36380;BME280;22411;53.016;18.632;2023-05-25T05:11:53;101239.03;;;13.06;100.00
36380;BME280;22411;53.016;18.632;2023-05-25T05:14:19;101238.75;;;13.11;100.00
36380;BME280;22411;53.016;18.632;2023-05-25T05:16:45;101241.56;;;13.08;100.00
36380;BME280;22411;53.016;18.632;2023-05-25T05:19:12;101230.41;;;13.06;100.00
36380;BME280;22411;53.016;18.632;2023-05-25T05:21:38;101233.94;;;13.05;100.00
36380;BME280;22411;53.016;18.632;2023-05-25T05:24:03;101230.81;;;13.13;100.00
36380;BME280;22411;53.016;18.632;2023-05-25T05:26:29;101230.50;;;13.17;100.00
36380;BME280;22411;53.016;18.632;2023-05-25T05:28:55;101232.91;;;13.20;100.00
36380;BME280;22411;53.016;18.632;2023-05-25T05:31:21;101232.34;;;13.29;100.00
36380;BME280;22411;53.016;18.632;2023-05-25T05:33:47;101237.13;;;13.36;100.00
36380;BME280;22411;53.016;18.632;2023-05-25T05:36:13;101235.84;;;13.54;100.00
36380;BME280;22411;53.016;18.632;2023-05-25T05:38:38;101240.53;;;13.49;100.00
36380;BME280;22411;53.016;18.632;2023-05-25T05:41:06;101244.28;;;13.57;100.00
36380;BME280;22411;53.016;18.632;2023-05-25T05:43:37;101252.28;;;13.67;100.00
36380;BME280;22411;53.016;18.632;2023-05-25T05:46:04;101245.72;;;13.74;100.00
36380;BME280;22411;53.016;18.632;2023-05-25T05:48:30;101239.97;;;13.82;100.00
36380;BME280;22411;53.016;18.632;2023-05-25T05:50:55;101237.13;;;13.85;100.00
36380;BME280;22411;53.016;18.632;2023-05-25T05:53:21;101238.72;;;13.88;100.00
36380;BME280;22411;53.016;18.632;2023-05-25T05:55:47;101235.59;;;13.82;100.00
36380;BME280;22411;53.016;18.632;2023-05-25T05:58:12;101238.19;;;13.82;100.00
36380;BME280;22411;53.016;18.632;2023-05-25T06:00:38;101239.41;;;13.90;100.00
36380;BME280;22411;53.016;18.632;2023-05-25T06:03:03;101247.69;;;13.71;100.00
36380;BME280;22411;53.016;18.632;2023-05-25T06:05:31;101250.81;;;13.76;100.00
36380;BME280;22411;53.016;18.632;2023-05-25T06:07:56;101240.31;;;13.65;100.00
36380;BME280;22411;53.016;18.632;2023-05-25T06:10:22;101238.44;;;13.67;100.00
36380;BME280;22411;53.016;18.632;2023-05-25T06:12:47;101236.34;;;13.72;100.00
36380;BME280;22411;53.016;18.632;2023-05-25T06:15:13;101234.19;;;13.66;100.00
36380;BME280;22411;53.016;18.632;2023-05-25T06:17:39;101236.44;;;13.70;100.00
36380;BME280;22411;53.016;18.632;2023-05-25T06:20:05;101237.19;;;13.72;100.00
36380;BME280;22411;53.016;18.632;2023-05-25T06:22:30;101253.53;;;13.74;100.00
36380;BME280;22411;53.016;18.632;2023-05-25T06:24:58;101241.63;;;13.83;100.00
36380;BME280;22411;53.016;18.632;2023-05-25T06:27:23;101251.50;;;13.91;100.00
36380;BME280;22411;53.016;18.632;2023-05-25T06:29:49;101254.16;;;14.15;100.00
36380;BME280;22411;53.016;18.632;2023-05-25T06:32:14;101256.03;;;14.36;100.00
36380;BME280;22411;53.016;18.632;2023-05-25T06:34:40;101257.78;;;14.49;100.00
36380;BME280;22411;53.016;18.632;2023-05-25T06:37:06;101258.63;;;14.49;100.00
36380;BME280;22411;53.016;18.632;2023-05-25T06:39:32;101265.56;;;14.61;100.00
36380;BME280;22411;53.016;18.632;2023-05-25T06:41:57;101256.50;;;14.78;100.00
36380;BME280;22411;53.016;18.632;2023-05-25T06:44:23;101261.44;;;15.05;100.00
36380;BME280;22411;53.016;18.632;2023-05-25T06:46:48;101265.84;;;15.27;100.00
36380;BME280;22411;53.016;18.632;2023-05-25T06:49:14;101271.22;;;15.59;100.00
36380;BME280;22411;53.016;18.632;2023-05-25T06:51:40;101271.69;;;15.87;100.00
36380;BME280;22411;53.016;18.632;2023-05-25T06:54:06;101271.59;;;16.00;100.00
36380;BME280;22411;53.016;18.632;2023-05-25T06:56:32;101273.47;;;15.98;100.00
36380;BME280;22411;53.016;18.632;2023-05-25T06:58:58;101280.63;;;15.95;100.00
36380;BME280;22411;53.016;18.632;2023-05-25T07:01:24;101283.56;;;16.02;100.00
36380;BME280;22411;53.016;18.632;2023-05-25T07:03:50;101288.31;;;15.97;100.00
36380;BME280;22411;53.016;18.632;2023-05-25T07:06:15;101287.75;;;16.05;100.00
36380;BME280;22411;53.016;18.632;2023-05-25T07:08:42;101287.00;;;16.25;100.00
36380;BME280;22411;53.016;18.632;2023-05-25T07:11:07;101284.84;;;16.30;100.00
36380;BME280;22411;53.016;18.632;2023-05-25T07:13:39;101271.13;;;16.38;100.00
36380;BME280;22411;53.016;18.632;2023-05-25T07:16:04;101275.13;;;16.53;100.00
36380;BME280;22411;53.016;18.632;2023-05-25T07:18:30;101279.53;;;16.85;100.00
36380;BME280;22411;53.016;18.632;2023-05-25T07:20:56;101274.63;;;16.91;100.00
36380;BME280;22411;53.016;18.632;2023-05-25T07:23:22;101276.25;;;17.04;100.00
36380;BME280;22411;53.016;18.632;2023-05-25T07:25:48;101270.94;;;17.15;100.00
36380;BME280;22411;53.016;18.632;2023-05-25T07:28:14;101271.00;;;17.24;100.00
36380;BME280;22411;53.016;18.632;2023-05-25T07:30:39;101265.63;;;17.26;100.00
36380;BME280;22411;53.016;18.632;2023-05-25T07:33:06;101267.72;;;17.11;100.00
36380;BME280;22411;53.016;18.632;2023-05-25T07:35:31;101267.56;;;17.03;100.00
36380;BME280;22411;53.016;18.632;2023-05-25T07:38:01;101274.50;;;16.93;100.00
36380;BME280;22411;53.016;18.632;2023-05-25T07:40:27;101275.41;;;17.03;100.00
36380;BME280;22411;53.016;18.632;2023-05-25T07:42:53;101276.16;;;17.36;100.00
36380;BME280;22411;53.016;18.632;2023-05-25T07:45:19;101280.91;;;17.51;100.00
36380;BME280;22411;53.016;18.632;2023-05-25T07:47:46;101278.84;;;17.55;100.00
36380;BME280;22411;53.016;18.632;2023-05-25T07:50:12;101285.41;;;17.70;100.00
36380;BME280;22411;53.016;18.632;2023-05-25T07:52:38;101290.84;;;17.79;100.00
36380;BME280;22411;53.016;18.632;2023-05-25T07:55:05;101294.59;;;17.86;100.00
36380;BME280;22411;53.016;18.632;2023-05-25T07:57:32;101288.81;;;17.92;100.00
36380;BME280;22411;53.016;18.632;2023-05-25T07:59:57;101280.16;;;18.11;100.00
36380;BME280;22411;53.016;18.632;2023-05-25T08:02:23;101280.31;;;18.09;100.00
36380;BME280;22411;53.016;18.632;2023-05-25T08:04:49;101285.84;;;18.16;100.00
36380;BME280;22411;53.016;18.632;2023-05-25T08:07:15;101287.94;;;18.32;100.00
36380;BME280;22411;53.016;18.632;2023-05-25T08:09:40;101285.22;;;18.62;100.00
36380;BME280;22411;53.016;18.632;2023-05-25T08:12:06;101292.09;;;19.02;100.00
36380;BME280;22411;53.016;18.632;2023-05-25T08:14:31;101291.41;;;19.10;100.00
36380;BME280;22411;53.016;18.632;2023-05-25T08:16:57;101294.47;;;19.15;100.00
36380;BME280;22411;53.016;18.632;2023-05-25T08:19:23;101291.59;;;18.89;100.00
36380;BME280;22411;53.016;18.632;2023-05-25T08:21:48;101289.06;;;19.06;100.00
36380;BME280;22411;53.016;18.632;2023-05-25T08:24:15;101292.63;;;19.25;100.00
36380;BME280;22411;53.016;18.632;2023-05-25T08:26:41;101292.97;;;19.49;100.00
36380;BME280;22411;53.016;18.632;2023-05-25T08:29:07;101294.06;;;19.94;100.00
36380;BME280;22411;53.016;18.632;2023-05-25T08:31:33;101291.28;;;20.41;100.00
36380;BME280;22411;53.016;18.632;2023-05-25T08:34:00;101285.91;;;20.15;100.00
36380;BME280;22411;53.016;18.632;2023-05-25T08:36:26;101290.66;;;19.83;100.00
36380;BME280;22411;53.016;18.632;2023-05-25T08:38:52;101286.41;;;20.00;100.00
36380;BME280;22411;53.016;18.632;2023-05-25T08:41:18;101290.03;;;20.35;100.00
36380;BME280;22411;53.016;18.632;2023-05-25T08:43:45;101290.41;;;20.68;100.00
36380;BME280;22411;53.016;18.632;2023-05-25T08:46:12;101304.31;;;20.15;100.00
36380;BME280;22411;53.016;18.632;2023-05-25T08:48:37;101294.75;;;20.14;100.00
36380;BME280;22411;53.016;18.632;2023-05-25T08:51:06;101292.63;;;20.80;100.00
36380;BME280;22411;53.016;18.632;2023-05-25T08:53:34;101298.06;;;21.49;100.00
36380;BME280;22411;53.016;18.632;2023-05-25T08:56:20;101296.41;;;21.82;100.00
36380;BME280;22411;53.016;18.632;2023-05-25T08:59:16;101305.59;;;22.12;100.00
36380;BME280;22411;53.016;18.632;2023-05-25T09:01:51;101301.41;;;21.07;100.00
36380;BME280;22411;53.016;18.632;2023-05-25T09:04:19;101297.34;;;21.38;100.00
36380;BME280;22411;53.016;18.632;2023-05-25T09:06:45;101292.50;;;21.52;100.00
36380;BME280;22411;53.016;18.632;2023-05-25T09:09:12;101305.06;;;21.66;100.00
36380;BME280;22411;53.016;18.632;2023-05-25T09:11:39;101306.09;;;21.73;100.00
36380;BME280;22411;53.016;18.632;2023-05-25T09:14:10;101310.75;;;21.79;100.00
36380;BME280;22411;53.016;18.632;2023-05-25T09:16:36;101303.50;;;22.40;100.00
36380;BME280;22411;53.016;18.632;2023-05-25T09:19:02;101311.91;;;22.27;100.00
36380;BME280;22411;53.016;18.632;2023-05-25T09:21:28;101307.97;;;21.89;100.00
36380;BME280;22411;53.016;18.632;2023-05-25T09:23:54;101303.19;;;21.92;100.00
36380;BME280;22411;53.016;18.632;2023-05-25T09:26:20;101299.88;;;21.48;100.00
36380;BME280;22411;53.016;18.632;2023-05-25T09:28:46;101305.16;;;21.48;100.00
36380;BME280;22411;53.016;18.632;2023-05-25T09:31:14;101310.34;;;22.00;100.00
36380;BME280;22411;53.016;18.632;2023-05-25T09:33:40;101305.53;;;22.62;100.00
36380;BME280;22411;53.016;18.632;2023-05-25T09:36:08;101314.75;;;22.50;100.00
36380;BME280;22411;53.016;18.632;2023-05-25T09:38:35;101316.19;;;21.26;100.00
36380;BME280;22411;53.016;18.632;2023-05-25T09:41:01;101312.06;;;21.49;100.00
36380;BME280;22411;53.016;18.632;2023-05-25T09:43:26;101309.44;;;21.83;100.00
36380;BME280;22411;53.016;18.632;2023-05-25T09:45:53;101316.22;;;21.86;100.00
36380;BME280;22411;53.016;18.632;2023-05-25T09:48:20;101310.69;;;22.05;100.00
36380;BME280;22411;53.016;18.632;2023-05-25T09:50:46;101312.78;;;21.93;100.00
36380;BME280;22411;53.016;18.632;2023-05-25T09:53:12;101311.81;;;21.60;100.00
36380;BME280;22411;53.016;18.632;2023-05-25T09:55:38;101303.16;;;22.35;100.00
36380;BME280;22411;53.016;18.632;2023-05-25T09:58:04;101308.69;;;22.99;100.00
36380;BME280;22411;53.016;18.632;2023-05-25T10:00:30;101311.06;;;24.05;100.00
36380;BME280;22411;53.016;18.632;2023-05-25T10:02:56;101309.47;;;24.72;100.00
36380;BME280;22411;53.016;18.632;2023-05-25T10:05:22;101320.00;;;24.81;100.00
36380;BME280;22411;53.016;18.632;2023-05-25T10:07:49;101327.69;;;24.52;100.00
36380;BME280;22411;53.016;18.632;2023-05-25T10:10:15;101317.41;;;24.26;100.00
36380;BME280;22411;53.016;18.632;2023-05-25T10:12:42;101313.34;;;23.60;100.00
36380;BME280;22411;53.016;18.632;2023-05-25T10:15:12;101311.50;;;23.77;100.00
36380;BME280;22411;53.016;18.632;2023-05-25T10:17:47;101310.72;;;23.68;100.00
36380;BME280;22411;53.016;18.632;2023-05-25T10:20:15;101319.50;;;23.53;100.00
36380;BME280;22411;53.016;18.632;2023-05-25T10:22:49;101321.75;;;23.80;100.00
36380;BME280;22411;53.016;18.632;2023-05-25T10:25:26;101322.28;;;23.59;100.00
36380;BME280;22411;53.016;18.632;2023-05-25T10:28:01;101322.22;;;23.28;100.00
36380;BME280;22411;53.016;18.632;2023-05-25T10:30:28;101315.97;;;23.77;100.00
36380;BME280;22411;53.016;18.632;2023-05-25T10:32:54;101319.84;;;24.05;100.00
36380;BME280;22411;53.016;18.632;2023-05-25T10:35:22;101317.13;;;24.44;100.00
36380;BME280;22411;53.016;18.632;2023-05-25T10:37:51;101322.72;;;24.95;100.00
36380;BME280;22411;53.016;18.632;2023-05-25T10:40:18;101323.44;;;24.66;100.00
36380;BME280;22411;53.016;18.632;2023-05-25T10:42:45;101324.94;;;23.59;100.00
36380;BME280;22411;53.016;18.632;2023-05-25T10:45:11;101317.28;;;22.84;100.00
36380;BME280;22411;53.016;18.632;2023-05-25T10:47:39;101315.94;;;22.80;100.00
36380;BME280;22411;53.016;18.632;2023-05-25T10:50:22;101310.31;;;22.75;100.00
36380;BME280;22411;53.016;18.632;2023-05-25T10:53:05;101316.91;;;22.87;100.00
36380;BME280;22411;53.016;18.632;2023-05-25T10:58:11;101315.72;;;24.80;100.00
36380;BME280;22411;53.016;18.632;2023-05-25T11:00:38;101309.19;;;25.05;100.00
36380;BME280;22411;53.016;18.632;2023-05-25T11:03:05;101305.16;;;24.94;100.00
36380;BME280;22411;53.016;18.632;2023-05-25T11:05:36;101304.78;;;24.37;100.00
36380;BME280;22411;53.016;18.632;2023-05-25T11:08:03;101294.47;;;24.11;100.00
36380;BME280;22411;53.016;18.632;2023-05-25T11:10:50;101305.41;;;24.08;100.00
36380;BME280;22411;53.016;18.632;2023-05-25T11:19:20;101294.00;;;22.96;100.00
36380;BME280;22411;53.016;18.632;2023-05-25T11:21:45;101296.44;;;22.49;100.00
36380;BME280;22411;53.016;18.632;2023-05-25T11:24:14;101297.75;;;22.36;100.00
36380;BME280;22411;53.016;18.632;2023-05-25T11:26:54;101290.84;;;22.68;100.00
36380;BME280;22411;53.016;18.632;2023-05-25T11:29:20;101293.19;;;23.59;100.00
36380;BME280;22411;53.016;18.632;2023-05-25T11:31:51;101292.75;;;23.39;100.00
36380;BME280;22411;53.016;18.632;2023-05-25T11:34:20;101286.38;;;23.26;100.00
36380;BME280;22411;53.016;18.632;2023-05-25T11:36:46;101296.66;;;23.60;100.00
36380;BME280;22411;53.016;18.632;2023-05-25T11:39:12;101296.13;;;23.81;100.00
36380;BME280;22411;53.016;18.632;2023-05-25T11:41:47;101300.00;;;24.24;100.00
36380;BME280;22411;53.016;18.632;2023-05-25T11:44:13;101296.13;;;23.72;100.00
36380;BME280;22411;53.016;18.632;2023-05-25T11:46:40;101285.84;;;23.86;100.00
36380;BME280;22411;53.016;18.632;2023-05-25T11:49:07;101293.97;;;23.76;100.00
36380;BME280;22411;53.016;18.632;2023-05-25T11:51:34;101302.28;;;23.73;100.00
36380;BME280;22411;53.016;18.632;2023-05-25T11:54:00;101290.63;;;23.82;100.00
36380;BME280;22411;53.016;18.632;2023-05-25T11:56:31;101289.44;;;23.45;100.00
36380;BME280;22411;53.016;18.632;2023-05-25T11:58:57;101287.22;;;23.02;100.00
36380;BME280;22411;53.016;18.632;2023-05-25T12:01:23;101287.22;;;22.69;100.00
36380;BME280;22411;53.016;18.632;2023-05-25T12:03:50;101282.09;;;22.67;100.00
36380;BME280;22411;53.016;18.632;2023-05-25T12:06:29;101287.22;;;23.10;100.00
36380;BME280;22411;53.016;18.632;2023-05-25T12:08:56;101281.91;;;23.18;100.00
36380;BME280;22411;53.016;18.632;2023-05-25T12:11:35;101287.69;;;23.21;100.00
36380;BME280;22411;53.016;18.632;2023-05-25T12:14:05;101284.19;;;23.29;100.00
36380;BME280;22411;53.016;18.632;2023-05-25T12:16:35;101282.66;;;23.43;100.00
36380;BME280;22411;53.016;18.632;2023-05-25T12:19:04;101288.53;;;23.61;100.00
36380;BME280;22411;53.016;18.632;2023-05-25T12:21:30;101272.53;;;23.55;100.00
36380;BME280;22411;53.016;18.632;2023-05-25T12:23:57;101281.22;;;23.24;100.00
36380;BME280;22411;53.016;18.632;2023-05-25T12:26:23;101280.44;;;23.07;100.00
36380;BME280;22411;53.016;18.632;2023-05-25T12:28:59;101282.22;;;23.31;100.00
36380;BME280;22411;53.016;18.632;2023-05-25T12:31:27;101279.63;;;23.62;100.00
36380;BME280;22411;53.016;18.632;2023-05-25T12:37:15;101273.41;;;24.17;100.00
36380;BME280;22411;53.016;18.632;2023-05-25T12:41:57;101282.34;;;24.47;97.71
36380;BME280;22411;53.016;18.632;2023-05-25T12:47:14;101271.78;;;24.62;94.07
36380;BME280;22411;53.016;18.632;2023-05-25T12:49:50;101276.41;;;24.14;97.54
36380;BME280;22411;53.016;18.632;2023-05-25T12:52:37;101265.00;;;24.14;98.68
36380;BME280;22411;53.016;18.632;2023-05-25T12:55:25;101267.31;;;23.86;100.00